Time;durP1;ratioP1;P1;durP2;ratioP2;P2;SDS_P1;SDS_P2;PMS_P1;PMS_P2;Temp;Humidity;BMP_temperature;BMP_pressure;BME280_temperature;BME280_humidity;BME280_pressure;Samples;Min_cycle;Max_cycle;Signal;HPM_P1;HPM_P2
2023/03/08 00:01:35;;;;;;;61.58;40.75;;;;;;;-0.20;100.00;-18021.75;5024360;28;20092;-82
2023/03/08 00:04:01;;;;;;;57.95;34.40;;;;;;;-0.18;100.00;-18022.31;5025503;28;20381;-83
2023/03/08 00:06:26;;;;;;;59.63;36.17;;;;;;;-0.22;100.00;-18021.34;5015105;28;20141;-83
2023/03/08 00:08:59;;;;;;;53.17;29.75;;;;;;;-0.15;100.00;-18023.16;5029022;28;20127;-83
2023/03/08 00:11:26;;;;;;;60.10;34.60;;;;;;;-0.16;100.00;-18022.88;5021897;28;20046;-83
2023/03/08 00:13:51;;;;;;;59.40;37.05;;;;;;;-0.18;100.00;-18022.47;5030192;28;20038;-83
2023/03/08 00:16:17;;;;;;;53.63;32.75;;;;;;;-0.22;100.00;-18021.34;5029039;28;20616;-83
2023/03/08 00:18:43;;;;;;;52.10;30.20;;;;;;;-0.22;100.00;-18021.22;5038925;28;20041;-83
2023/03/08 00:21:14;;;;;;;55.10;32.50;;;;;;;-0.20;100.00;-18021.75;5033824;28;20415;-83
2023/03/08 00:23:40;;;;;;;58.08;36.25;;;;;;;-0.27;100.00;-18019.97;5034835;28;20041;-82
2023/03/08 00:26:06;;;;;;;51.45;30.30;;;;;;;-0.27;100.00;-18019.97;5023794;28;20037;-83
2023/03/08 00:28:32;;;;;;;56.97;35.40;;;;;;;-0.32;100.00;-18018.56;5033133;28;20034;-83
2023/03/08 00:31:06;;;;;;;46.50;25.65;;;;;;;-0.32;100.00;-18018.72;5032286;28;20092;-83
2023/03/08 00:33:32;;;;;;;55.67;35.28;;;;;;;-0.33;100.00;-18018.31;5032011;28;20384;-82
2023/03/08 00:36:02;;;;;;;45.00;24.20;;;;;;;-0.35;100.00;-18017.88;5030601;28;20044;-83
2023/03/08 00:38:30;;;;;;;55.88;34.13;;;;;;;-0.35;100.00;-18017.88;5025222;28;20451;-83
2023/03/08 00:40:55;;;;;;;43.60;26.02;;;;;;;-0.38;100.00;-18017.06;5028929;28;20044;-82
2023/03/08 00:43:21;;;;;;;41.15;23.33;;;;;;;-0.41;100.00;-18016.09;5025615;28;20042;-82
2023/03/08 00:45:46;;;;;;;49.17;28.00;;;;;;;-0.45;100.00;-18015.13;5013497;28;20029;-82
2023/03/08 00:48:11;;;;;;;45.67;26.50;;;;;;;-0.42;100.00;-18015.81;5030742;28;20045;-83
2023/03/08 00:50:37;;;;;;;42.78;28.40;;;;;;;-0.44;100.00;-18015.25;5021873;28;20559;-83
2023/03/08 00:53:02;;;;;;;43.95;27.02;;;;;;;-0.47;100.00;-18014.56;5030098;28;20072;-83
2023/03/08 00:55:28;;;;;;;45.83;28.98;;;;;;;-0.48;100.00;-18014.28;5028930;28;20040;-83
2023/03/08 00:57:53;;;;;;;43.63;25.90;;;;;;;-0.48;100.00;-18014.41;5028465;28;20378;-82
2023/03/08 01:00:19;;;;;;;48.95;27.67;;;;;;;-0.42;100.00;-18015.81;5014719;28;20099;-83
2023/03/08 01:02:44;;;;;;;39.08;22.67;;;;;;;-0.44;100.00;-18015.41;5010115;28;20059;-83
2023/03/08 01:05:09;;;;;;;42.05;21.98;;;;;;;-0.42;100.00;-18015.81;5032576;28;20041;-83
2023/03/08 01:07:35;;;;;;;48.50;28.10;;;;;;;-0.46;100.00;-18014.84;5023401;28;20398;-82
2023/03/08 01:10:00;;;;;;;40.38;20.33;;;;;;;-0.46;100.00;-18014.97;5029135;28;20041;-83
2023/03/08 01:12:25;;;;;;;50.03;28.67;;;;;;;-0.43;100.00;-18015.53;5030359;28;20132;-83
2023/03/08 01:14:52;;;;;;;52.15;30.15;;;;;;;-0.51;100.00;-18013.44;5027818;28;20549;-83
2023/03/08 01:17:18;;;;;;;53.90;32.10;;;;;;;-0.49;100.00;-18014.00;5026659;28;20061;-83
2023/03/08 01:19:43;;;;;;;55.45;26.23;;;;;;;-0.50;100.00;-18013.72;5028656;28;20641;-84
2023/03/08 01:22:09;;;;;;;54.30;31.15;;;;;;;-0.46;100.00;-18014.97;5026573;28;20049;-83
2023/03/08 01:24:34;;;;;;;54.40;28.90;;;;;;;-0.45;100.00;-18015.13;5008425;28;20064;-82
2023/03/08 01:26:59;;;;;;;62.65;33.65;;;;;;;-0.50;100.00;-18013.88;5026126;28;20508;-82
2023/03/08 01:29:26;;;;;;;50.83;25.95;;;;;;;-0.49;100.00;-18014.00;5014316;28;20072;-82
2023/03/08 01:31:52;;;;;;;55.65;30.20;;;;;;;-0.48;100.00;-18014.28;5027055;28;20048;-82
2023/03/08 01:34:18;;;;;;;57.50;28.75;;;;;;;-0.51;100.00;-18013.44;5024247;28;20149;-84
2023/03/08 01:36:43;;;;;;;54.97;28.70;;;;;;;-0.52;100.00;-18013.19;5024491;28;20037;-82
2023/03/08 01:39:09;;;;;;;63.15;34.17;;;;;;;-0.51;100.00;-18013.59;5022676;28;20081;-82
2023/03/08 01:41:34;;;;;;;59.95;30.80;;;;;;;-0.54;100.00;-18012.63;5029603;28;20504;-83
2023/03/08 01:44:00;;;;;;;59.25;30.52;;;;;;;-0.58;100.00;-18011.66;5025749;28;20137;-83
2023/03/08 01:46:30;;;;;;;52.65;24.92;;;;;;;-0.53;100.00;-18012.91;5030528;28;20037;-83
2023/03/08 01:49:01;;;;;;;66.55;33.55;;;;;;;-0.52;100.00;-18013.19;5029706;28;20084;-82
2023/03/08 01:51:48;;;;;;;52.63;25.67;;;;;;;-0.52;100.00;-18013.31;5029785;28;20037;-83
2023/03/08 01:54:25;;;;;;;62.70;31.70;;;;;;;-0.50;100.00;-18013.72;5004031;28;20046;-83
2023/03/08 01:56:54;;;;;;;53.42;22.92;;;;;;;-0.49;100.00;-18014.16;5024584;28;20099;-84
2023/03/08 01:59:21;;;;;;;66.03;31.73;;;;;;;-0.51;100.00;-18013.44;5026532;28;20037;-83
2023/03/08 02:01:48;;;;;;;60.47;29.25;;;;;;;-0.54;100.00;-18012.63;5004802;28;20061;-83
2023/03/08 02:04:13;;;;;;;53.92;27.52;;;;;;;-0.56;100.00;-18012.22;5029379;28;20030;-82
2023/03/08 02:06:40;;;;;;;69.07;33.85;;;;;;;-0.52;100.00;-18013.19;5028748;28;20081;-82
2023/03/08 02:09:06;;;;;;;61.40;27.92;;;;;;;-0.50;100.00;-18013.72;5028606;28;20041;-83
2023/03/08 02:11:33;;;;;;;58.17;26.67;;;;;;;-0.51;100.00;-18013.59;5031138;28;20105;-83
2023/03/08 02:13:59;;;;;;;55.33;23.52;;;;;;;-0.51;100.00;-18013.59;5010571;28;20965;-82
2023/03/08 02:16:24;;;;;;;64.72;28.45;;;;;;;-0.47;100.00;-18014.69;5031005;28;20065;-82
2023/03/08 02:19:09;;;;;;;64.68;28.67;;;;;;;-0.53;100.00;-18012.91;5027942;28;20078;-84
2023/03/08 02:21:35;;;;;;;50.20;21.92;;;;;;;-0.57;100.00;-18011.78;5023557;28;20041;-84
2023/03/08 02:24:21;;;;;;;53.17;22.85;;;;;;;-0.56;100.00;-18012.22;5025635;28;20052;-85
2023/03/08 02:26:47;;;;;;;53.67;24.45;;;;;;;-0.51;100.00;-18013.44;5025456;28;20099;-84
2023/03/08 02:29:12;;;;;;;55.67;26.80;;;;;;;-0.53;100.00;-18013.03;5007844;28;20660;-85
2023/03/08 02:31:37;;;;;;;66.28;30.42;;;;;;;-0.49;100.00;-18014.16;5027455;28;20239;-83
2023/03/08 02:34:03;;;;;;;70.25;29.73;;;;;;;-0.49;100.00;-18014.00;5023302;28;20397;-84
2023/03/08 02:36:28;;;;;;;69.72;29.27;;;;;;;-0.46;100.00;-18014.97;5024432;28;20029;-83
2023/03/08 02:38:54;;;;;;;66.30;31.70;;;;;;;-0.48;100.00;-18014.28;5024994;28;20133;-84
2023/03/08 02:41:19;;;;;;;59.90;28.70;;;;;;;-0.51;100.00;-18013.44;5025152;28;20091;-83
2023/03/08 02:43:45;;;;;;;73.13;34.28;;;;;;;-0.48;100.00;-18014.28;5023401;28;20084;-84
2023/03/08 02:46:12;;;;;;;55.38;25.20;;;;;;;-0.46;100.00;-18014.84;5028039;28;20045;-84
2023/03/08 02:48:37;;;;;;;61.13;25.35;;;;;;;-0.45;100.00;-18015.13;5027104;28;20049;-84
2023/03/08 02:51:02;;;;;;;55.55;25.88;;;;;;;-0.48;100.00;-18014.41;5024255;28;20036;-84
2023/03/08 02:53:28;;;;;;;65.07;29.40;;;;;;;-0.42;100.00;-18015.94;5027026;28;20037;-83
2023/03/08 02:55:53;;;;;;;66.22;31.10;;;;;;;-0.42;100.00;-18015.94;5025215;28;20048;-84
2023/03/08 02:58:19;;;;;;;72.22;34.70;;;;;;;-0.40;100.00;-18016.50;5025688;28;20043;-85
2023/03/08 03:00:44;;;;;;;74.22;35.40;;;;;;;-0.37;100.00;-18017.34;5022703;28;20107;-82
2023/03/08 03:03:09;;;;;;;71.18;34.55;;;;;;;-0.37;100.00;-18017.34;5027328;28;20507;-83
2023/03/08 03:05:40;;;;;;;74.38;36.97;;;;;;;-0.36;100.00;-18017.47;5026190;28;20528;-82
2023/03/08 03:08:05;;;;;;;75.70;34.22;;;;;;;-0.37;100.00;-18017.19;5013397;28;20107;-82
2023/03/08 03:10:31;;;;;;;53.22;23.77;;;;;;;-0.41;100.00;-18016.22;5023450;28;20504;-82
2023/03/08 03:12:56;;;;;;;51.70;24.17;;;;;;;-0.40;100.00;-18016.50;5021111;28;20026;-82
2023/03/08 03:15:21;;;;;;;66.40;28.80;;;;;;;-0.35;100.00;-18017.88;5027229;28;20033;-82
2023/03/08 03:17:47;;;;;;;52.15;22.45;;;;;;;-0.40;100.00;-18016.50;5026385;28;20114;-82
2023/03/08 03:20:12;;;;;;;62.67;29.27;;;;;;;-0.38;100.00;-18017.06;5024475;28;20144;-82
2023/03/08 03:22:38;;;;;;;59.00;28.05;;;;;;;-0.39;100.00;-18016.78;5028516;28;20468;-82
2023/03/08 03:25:04;;;;;;;62.63;32.83;;;;;;;-0.36;100.00;-18017.59;5022655;28;20048;-82
2023/03/08 03:27:30;;;;;;;52.75;22.60;;;;;;;-0.36;100.00;-18017.59;5026078;28;20688;-82
2023/03/08 03:29:55;;;;;;;65.60;32.03;;;;;;;-0.34;100.00;-18018.03;5028830;28;20045;-82
2023/03/08 03:32:20;;;;;;;65.20;32.72;;;;;;;-0.32;100.00;-18018.72;5026376;28;20037;-82
2023/03/08 03:34:46;;;;;;;69.20;32.55;;;;;;;-0.37;100.00;-18017.34;5025914;28;20623;-82
2023/03/08 03:37:11;;;;;;;74.50;36.25;;;;;;;-0.34;100.00;-18018.03;5029387;28;20045;-81
2023/03/08 03:39:37;;;;;;;61.53;27.85;;;;;;;-0.41;100.00;-18016.22;5026813;28;20044;-82
2023/03/08 03:42:04;;;;;;;64.53;31.23;;;;;;;-0.42;100.00;-18015.81;5029789;28;20037;-82
2023/03/08 03:44:29;;;;;;;69.47;32.83;;;;;;;-0.35;100.00;-18017.88;5027547;28;20429;-82
2023/03/08 03:46:55;;;;;;;60.83;32.00;;;;;;;-0.33;100.00;-18018.44;5028179;28;20045;-82
2023/03/08 03:49:20;;;;;;;65.10;32.58;;;;;;;-0.39;100.00;-18016.78;5010318;28;20052;-82
2023/03/08 03:51:46;;;;;;;68.78;30.02;;;;;;;-0.35;100.00;-18017.75;5033277;28;20033;-82
2023/03/08 03:54:11;;;;;;;64.55;29.50;;;;;;;-0.33;100.00;-18018.31;5029145;28;20518;-82
2023/03/08 03:56:37;;;;;;;54.20;25.20;;;;;;;-0.36;100.00;-18017.47;5032732;28;20097;-82
2023/03/08 03:59:02;;;;;;;65.50;29.73;;;;;;;-0.34;100.00;-18018.16;5037144;28;20042;-82
2023/03/08 04:01:30;;;;;;;69.38;33.30;;;;;;;-0.38;100.00;-18017.06;5027215;28;20128;-83
2023/03/08 04:03:56;;;;;;;67.72;31.63;;;;;;;-0.33;100.00;-18018.44;5016024;28;20041;-83
2023/03/08 04:06:27;;;;;;;78.68;38.22;;;;;;;-0.33;100.00;-18018.31;5031995;28;20041;-83
2023/03/08 04:08:55;;;;;;;69.40;29.83;;;;;;;-0.37;100.00;-18017.19;5031492;28;20128;-83
2023/03/08 04:11:23;;;;;;;64.75;30.45;;;;;;;-0.37;100.00;-18017.34;5035135;28;20045;-83
2023/03/08 04:13:49;;;;;;;52.95;23.27;;;;;;;-0.43;100.00;-18015.66;5017272;28;20593;-83
2023/03/08 04:16:20;;;;;;;76.90;36.38;;;;;;;-0.41;100.00;-18016.22;5029700;28;20041;-84
2023/03/08 04:18:46;;;;;;;73.43;36.88;;;;;;;-0.39;100.00;-18016.63;5031161;28;20273;-83
2023/03/08 04:21:12;;;;;;;71.63;34.80;;;;;;;-0.34;100.00;-18018.03;5023594;28;20759;-83
2023/03/08 04:23:38;;;;;;;78.65;34.40;;;;;;;-0.36;100.00;-18017.59;5017092;28;20042;-83
2023/03/08 04:26:05;;;;;;;71.60;35.13;;;;;;;-0.37;100.00;-18017.34;5035253;28;20404;-83
2023/03/08 04:28:32;;;;;;;72.25;33.70;;;;;;;-0.36;100.00;-18017.59;5028787;28;20654;-83
2023/03/08 04:30:58;;;;;;;73.10;31.55;;;;;;;-0.33;100.00;-18018.31;5018526;28;20416;-83
2023/03/08 04:33:24;;;;;;;76.30;36.35;;;;;;;-0.37;100.00;-18017.34;5032511;28;20029;-83
2023/03/08 04:35:49;;;;;;;67.55;31.35;;;;;;;-0.34;100.00;-18018.16;5028033;28;20044;-83
2023/03/08 04:38:15;;;;;;;70.07;33.45;;;;;;;-0.33;100.00;-18018.31;5033445;28;20040;-83
2023/03/08 04:41:01;;;;;;;66.10;30.77;;;;;;;-0.33;100.00;-18018.44;5034133;28;20049;-83
2023/03/08 04:43:36;;;;;;;74.95;35.15;;;;;;;-0.35;100.00;-18017.75;4980292;28;21014;-83
2023/03/08 04:46:03;;;;;;;61.65;29.00;;;;;;;-0.40;100.00;-18016.38;5032782;28;20041;-83
2023/03/08 04:48:28;;;;;;;75.55;33.17;;;;;;;-0.33;100.00;-18018.44;5036789;28;20034;-82
2023/03/08 04:50:55;;;;;;;74.32;33.17;;;;;;;-0.33;100.00;-18018.44;5032384;28;20441;-83
2023/03/08 04:53:22;;;;;;;72.50;34.05;;;;;;;-0.34;100.00;-18018.16;5024417;28;20063;-84
2023/03/08 04:55:48;;;;;;;81.05;38.50;;;;;;;-0.36;100.00;-18017.47;5028151;28;20037;-83
2023/03/08 04:58:14;;;;;;;72.90;33.88;;;;;;;-0.34;100.00;-18018.16;5029695;28;20045;-84
2023/03/08 05:00:39;;;;;;;74.72;37.40;;;;;;;-0.36;100.00;-18017.59;5032098;28;20037;-84
2023/03/08 05:03:05;;;;;;;74.15;33.95;;;;;;;-0.40;100.00;-18016.38;5034750;28;20084;-84
2023/03/08 05:05:31;;;;;;;73.25;35.05;;;;;;;-0.35;100.00;-18017.75;5032673;28;20037;-83
2023/03/08 05:07:58;;;;;;;74.22;32.80;;;;;;;-0.35;100.00;-18017.88;5032312;28;20440;-83
2023/03/08 05:10:24;;;;;;;75.93;33.45;;;;;;;-0.36;100.00;-18017.47;5028770;28;20705;-84
2023/03/08 05:12:49;;;;;;;83.32;38.40;;;;;;;-0.35;100.00;-18017.88;5012845;28;20188;-84
2023/03/08 05:15:15;;;;;;;77.05;34.00;;;;;;;-0.35;100.00;-18017.75;5031335;28;20072;-84
2023/03/08 05:17:40;;;;;;;66.55;32.65;;;;;;;-0.33;100.00;-18018.31;5024393;28;20049;-84
2023/03/08 05:20:06;;;;;;;80.85;36.92;;;;;;;-0.31;100.00;-18018.84;5028347;28;20490;-83
2023/03/08 05:22:32;;;;;;;81.70;35.83;;;;;;;-0.30;100.00;-18019.28;5014580;28;20061;-83
2023/03/08 05:24:57;;;;;;;59.42;27.35;;;;;;;-0.35;100.00;-18017.75;5009128;28;20058;-83
2023/03/08 05:27:22;;;;;;;71.70;31.23;;;;;;;-0.35;100.00;-18017.88;5008145;28;20552;-83
2023/03/08 05:29:50;;;;;;;81.85;39.03;;;;;;;-0.34;100.00;-18018.16;5004258;28;20052;-83
2023/03/08 05:32:16;;;;;;;70.05;31.60;;;;;;;-0.36;100.00;-18017.59;4990704;28;20125;-83
2023/03/08 05:34:41;;;;;;;66.25;31.35;;;;;;;-0.35;100.00;-18017.75;5008532;28;20041;-82
2023/03/08 05:37:07;;;;;;;73.22;32.03;;;;;;;-0.36;100.00;-18017.47;5007177;28;20488;-83
2023/03/08 05:39:32;;;;;;;78.32;34.28;;;;;;;-0.38;100.00;-18017.06;5003903;28;20052;-83
2023/03/08 05:41:57;;;;;;;83.13;34.80;;;;;;;-0.33;100.00;-18018.31;5009339;28;20037;-83
2023/03/08 05:44:23;;;;;;;75.10;35.17;;;;;;;-0.30;100.00;-18019.13;5001528;28;20670;-83
2023/03/08 05:46:52;;;;;;;83.40;40.30;;;;;;;-0.31;100.00;-18019.00;5004423;28;20045;-82
2023/03/08 05:49:17;;;;;;;80.85;39.13;;;;;;;-0.33;100.00;-18018.44;5006182;28;20133;-82
2023/03/08 05:51:43;;;;;;;76.07;34.15;;;;;;;-0.31;100.00;-18018.84;5002128;28;20471;-83
2023/03/08 05:54:08;;;;;;;80.90;37.90;;;;;;;-0.30;100.00;-18019.13;4991913;28;20046;-83
2023/03/08 05:56:34;;;;;;;84.57;41.75;;;;;;;-0.33;100.00;-18018.31;5023136;28;20456;-83
2023/03/08 05:58:59;;;;;;;86.28;37.55;;;;;;;-0.32;100.00;-18018.56;5029605;28;20038;-83
2023/03/08 06:01:26;;;;;;;83.10;40.83;;;;;;;-0.34;100.00;-18018.16;5021047;28;20122;-82
2023/03/08 06:03:54;;;;;;;85.57;38.92;;;;;;;-0.28;100.00;-18019.69;5024777;28;20049;-82
2023/03/08 06:06:21;;;;;;;77.35;32.20;;;;;;;-0.33;100.00;-18018.44;5032447;28;20030;-82
2023/03/08 06:08:47;;;;;;;88.95;40.13;;;;;;;-0.29;100.00;-18019.41;5025294;28;20049;-82
2023/03/08 06:11:13;;;;;;;80.18;33.20;;;;;;;-0.28;100.00;-18019.69;5034043;28;20034;-82
2023/03/08 06:13:39;;;;;;;93.50;40.75;;;;;;;-0.26;100.00;-18020.25;5027458;28;20037;-82
2023/03/08 06:16:05;;;;;;;95.28;41.08;;;;;;;-0.19;100.00;-18022.19;5011136;28;20049;-82
2023/03/08 06:18:32;;;;;;;100.18;42.10;;;;;;;-0.20;100.00;-18021.75;5028209;28;20029;-83
2023/03/08 06:21:03;;;;;;;93.35;41.88;;;;;;;-0.21;100.00;-18021.50;5034961;28;20397;-82
2023/03/08 06:23:30;;;;;;;98.07;45.42;;;;;;;-0.21;100.00;-18021.50;5031295;28;20646;-83
2023/03/08 06:25:56;;;;;;;98.13;43.35;;;;;;;-0.22;100.00;-18021.34;5006261;28;20520;-83
2023/03/08 06:28:23;;;;;;;98.43;44.85;;;;;;;-0.22;100.00;-18021.34;5033420;28;20071;-83
2023/03/08 06:30:48;;;;;;;82.47;36.33;;;;;;;-0.20;100.00;-18021.75;5028760;28;20536;-82
2023/03/08 06:33:18;;;;;;;90.20;40.90;;;;;;;-0.20;100.00;-18021.75;5010412;28;20109;-83
2023/03/08 06:35:55;;;;;;;90.45;40.30;;;;;;;-0.20;100.00;-18021.75;5026430;28;20094;-83
2023/03/08 06:38:20;;;;;;;76.22;34.30;;;;;;;-0.19;100.00;-18022.19;5026204;28;20037;-83
2023/03/08 06:40:45;;;;;;;71.85;32.22;;;;;;;-0.15;100.00;-18023.16;5013550;28;20548;-83
2023/03/08 06:43:11;;;;;;;79.63;34.90;;;;;;;-0.15;100.00;-18023.28;5026129;28;20539;-83
2023/03/08 06:45:37;;;;;;;84.25;36.78;;;;;;;-0.12;100.00;-18023.97;5012463;28;20584;-83
2023/03/08 06:48:03;;;;;;;79.40;35.08;;;;;;;-0.12;100.00;-18024.13;5029981;28;20050;-83
2023/03/08 06:50:28;;;;;;;86.68;40.08;;;;;;;-0.10;100.00;-18024.53;5031937;28;20064;-83
2023/03/08 06:52:54;;;;;;;74.65;35.13;;;;;;;-0.09;100.00;-18024.81;5021576;28;20033;-83
2023/03/08 06:55:19;;;;;;;77.85;36.95;;;;;;;-0.09;100.00;-18024.81;5027662;28;20069;-83
2023/03/08 06:57:45;;;;;;;86.47;38.30;;;;;;;-0.08;100.00;-18025.09;5029744;28;20045;-83
2023/03/08 07:00:12;;;;;;;83.30;39.33;;;;;;;-0.02;100.00;-18026.91;5034094;28;20463;-82
2023/03/08 07:02:37;;;;;;;88.97;41.45;;;;;;;-0.04;100.00;-18026.19;5030775;28;20055;-83
2023/03/08 07:05:03;;;;;;;90.07;38.78;;;;;;;0.00;100.00;-18027.31;5032329;28;20497;-83
2023/03/08 07:07:28;;;;;;;87.63;38.20;;;;;;;0.01;100.00;-18027.44;5025915;28;20070;-83
2023/03/08 07:09:54;;;;;;;93.10;36.95;;;;;;;0.04;100.00;-18028.41;5027977;28;20042;-83
2023/03/08 07:12:19;;;;;;;91.28;36.42;;;;;;;0.06;100.00;-18028.97;5024576;28;20095;-83
2023/03/08 07:14:44;;;;;;;93.60;38.20;;;;;;;0.10;100.00;-18029.94;5025872;28;20045;-82
2023/03/08 07:17:10;;;;;;;89.15;37.13;;;;;;;0.08;100.00;-18029.53;5026751;28;20034;-83
2023/03/08 07:19:35;;;;;;;97.43;39.25;;;;;;;0.10;100.00;-18030.09;5025388;28;20559;-83
2023/03/08 07:22:01;;;;;;;93.45;37.10;;;;;;;0.08;100.00;-18029.53;5023885;28;20065;-83
2023/03/08 07:24:26;;;;;;;96.93;38.13;;;;;;;0.13;100.00;-18030.91;5026333;28;20068;-83
2023/03/08 07:26:51;;;;;;;102.38;41.78;;;;;;;0.13;100.00;-18030.78;5024836;28;20045;-83
2023/03/08 07:29:17;;;;;;;90.70;38.63;;;;;;;0.15;100.00;-18031.47;5026166;28;20041;-83
2023/03/08 07:31:42;;;;;;;97.72;41.63;;;;;;;0.16;100.00;-18031.75;5026711;28;20688;-83
2023/03/08 07:34:08;;;;;;;95.18;40.40;;;;;;;0.17;100.00;-18032.03;5028404;28;20049;-83
2023/03/08 07:36:33;;;;;;;94.88;39.97;;;;;;;0.19;100.00;-18032.56;5014186;28;20623;-83
2023/03/08 07:38:58;;;;;;;94.35;41.22;;;;;;;0.18;100.00;-18032.31;5023875;28;20128;-83
2023/03/08 07:41:24;;;;;;;101.30;42.40;;;;;;;0.20;100.00;-18032.84;5028435;28;20041;-83
2023/03/08 07:43:49;;;;;;;107.47;44.35;;;;;;;0.19;100.00;-18032.56;5031636;28;20033;-83
2023/03/08 07:46:14;;;;;;;104.70;42.83;;;;;;;0.24;100.00;-18033.69;5010101;28;20083;-83
2023/03/08 07:48:40;;;;;;;102.20;39.25;;;;;;;0.26;100.00;-18034.38;5027344;28;20104;-83
2023/03/08 07:51:08;;;;;;;98.22;38.15;;;;;;;0.27;100.00;-18034.50;5023897;28;20042;-83
2023/03/08 07:53:35;;;;;;;101.50;41.15;;;;;;;0.28;100.00;-18034.78;5029979;28;20183;-83
2023/03/08 07:56:01;;;;;;;98.22;40.65;;;;;;;0.30;100.00;-18035.34;5027811;28;20523;-83
2023/03/08 07:58:27;;;;;;;97.30;39.08;;;;;;;0.29;100.00;-18035.06;5026924;28;20037;-83
2023/03/08 08:00:53;;;;;;;101.72;41.95;;;;;;;0.33;100.00;-18036.19;5027453;28;20048;-83
2023/03/08 08:03:18;;;;;;;98.43;43.10;;;;;;;0.36;100.00;-18037.16;5033625;28;20034;-82
2023/03/08 08:05:44;;;;;;;102.95;40.97;;;;;;;0.37;100.00;-18037.28;5028965;28;20041;-83
2023/03/08 08:08:12;;;;;;;97.70;41.55;;;;;;;0.39;100.00;-18037.84;5026980;28;20055;-83
2023/03/08 08:10:40;;;;;;;105.22;40.65;;;;;;;0.41;100.00;-18038.41;5024983;28;22176;-83
2023/03/08 08:13:06;;;;;;;98.68;39.22;;;;;;;0.40;100.00;-18038.13;5027574;28;20037;-83
2023/03/08 08:15:32;;;;;;;93.30;37.92;;;;;;;0.45;100.00;-18039.50;5025703;28;20052;-83
2023/03/08 08:17:57;;;;;;;101.95;41.15;;;;;;;0.53;100.00;-18041.59;5033366;28;20091;-83
2023/03/08 08:20:23;;;;;;;95.43;41.13;;;;;;;0.55;100.00;-18042.28;5027724;28;20037;-83
2023/03/08 08:22:52;;;;;;;90.18;37.78;;;;;;;0.59;100.00;-18043.25;5029953;28;20048;-83
2023/03/08 08:25:18;;;;;;;103.75;42.05;;;;;;;0.59;100.00;-18043.38;5020240;28;20049;-84
2023/03/08 08:27:43;;;;;;;88.05;35.85;;;;;;;0.61;100.00;-18043.94;5026651;28;20045;-84
2023/03/08 08:30:12;;;;;;;95.38;40.00;;;;;;;0.59;100.00;-18043.38;5017477;28;20129;-84
2023/03/08 08:32:37;;;;;;;95.28;40.30;;;;;;;0.64;100.00;-18044.63;5020155;28;20045;-84
2023/03/08 08:35:03;;;;;;;96.57;37.80;;;;;;;0.65;100.00;-18044.91;5024482;28;20538;-84
2023/03/08 08:37:30;;;;;;;91.95;38.50;;;;;;;0.67;100.00;-18045.59;5035905;28;20116;-84
2023/03/08 08:39:56;;;;;;;87.50;37.47;;;;;;;0.70;100.00;-18046.28;5026582;28;20037;-84
2023/03/08 08:42:21;;;;;;;95.68;38.55;;;;;;;0.71;100.00;-18046.56;5030881;28;20606;-83
2023/03/08 08:44:47;;;;;;;95.38;39.60;;;;;;;0.73;100.00;-18046.97;5031054;28;20033;-84
2023/03/08 08:47:12;;;;;;;99.03;40.85;;;;;;;0.76;100.00;-18047.94;5028979;28;20057;-84
2023/03/08 08:49:38;;;;;;;93.18;39.75;;;;;;;0.84;100.00;-18050.03;5025545;28;20041;-83
2023/03/08 08:52:03;;;;;;;108.25;41.13;;;;;;;0.90;100.00;-18051.81;5011452;28;20044;-83
2023/03/08 08:54:29;;;;;;;112.57;47.17;;;;;;;0.90;100.00;-18051.69;5030462;28;20052;-83
2023/03/08 08:56:54;;;;;;;108.00;39.42;;;;;;;0.92;100.00;-18052.25;5030502;28;20033;-83
2023/03/08 08:59:20;;;;;;;109.13;44.33;;;;;;;0.95;100.00;-18053.06;5018940;28;20033;-83
2023/03/08 09:01:45;;;;;;;106.57;39.95;;;;;;;1.01;100.00;-18054.59;5035043;28;20404;-83
2023/03/08 09:04:12;;;;;;;117.40;48.42;;;;;;;1.02;100.00;-18055.00;5031616;28;20042;-83
2023/03/08 09:06:38;;;;;;;113.93;47.75;;;;;;;1.06;100.00;-18056.13;5029858;28;20045;-83
2023/03/08 09:09:04;;;;;;;116.53;45.35;;;;;;;1.12;100.00;-18057.78;5034301;28;20044;-84
2023/03/08 09:11:30;;;;;;;111.47;45.38;;;;;;;1.16;100.00;-18058.75;5034135;28;20215;-83
2023/03/08 09:13:55;;;;;;;117.60;45.95;;;;;;;1.19;100.00;-18059.44;5033233;28;20037;-83
2023/03/08 09:16:29;;;;;;;108.53;42.53;;;;;;;1.28;100.00;-18061.94;5042379;28;20041;-83
2023/03/08 09:18:57;;;;;;;110.55;48.88;;;;;;;1.31;100.00;-18062.75;5031584;28;20041;-83
2023/03/08 09:21:23;;;;;;;125.05;49.13;;;;;;;1.37;100.00;-18064.28;5032015;28;20089;-83
2023/03/08 09:23:49;;;;;;;98.40;43.10;;;;;;;1.38;100.00;-18064.69;5027974;28;20042;-83
2023/03/08 09:26:14;;;;;;;111.60;48.70;;;;;;;1.44;100.00;-18066.38;5022944;28;20047;-83
2023/03/08 09:28:40;;;;;;;103.68;45.22;;;;;;;1.51;100.00;-18068.31;5029368;28;20499;-83
2023/03/08 09:31:13;;;;;;;105.15;46.53;;;;;;;1.57;100.00;-18069.81;5042472;28;20040;-83
2023/03/08 09:33:44;;;;;;;105.30;45.80;;;;;;;1.60;100.00;-18070.50;5036509;28;20045;-83
2023/03/08 09:36:10;;;;;;;97.28;44.40;;;;;;;1.58;100.00;-18070.09;5025548;28;20045;-83
2023/03/08 09:38:36;;;;;;;88.55;40.72;;;;;;;1.57;100.00;-18069.97;5034154;28;20069;-83
2023/03/08 09:41:10;;;;;;;87.57;36.95;;;;;;;1.63;100.00;-18071.47;5032139;28;20072;-83
2023/03/08 09:44:16;;;;;;;96.30;44.95;;;;;;;1.68;100.00;-18072.72;5033649;28;20049;-83
2023/03/08 09:46:47;;;;;;;84.03;38.65;;;;;;;1.67;100.00;-18072.59;5009433;28;20042;-83
2023/03/08 09:49:18;;;;;;;91.47;39.65;;;;;;;1.74;100.00;-18074.53;5007108;28;20054;-83
2023/03/08 09:51:47;;;;;;;86.50;39.00;;;;;;;1.76;100.00;-18074.94;5010537;28;20044;-83
2023/03/08 09:54:18;;;;;;;88.25;42.90;;;;;;;1.83;100.00;-18076.88;5018999;28;20528;-83
2023/03/08 09:56:50;;;;;;;80.45;38.67;;;;;;;1.87;100.00;-18078.00;5030539;28;20133;-83
2023/03/08 09:59:33;;;;;;;80.40;38.88;;;;;;;1.87;100.00;-18077.84;5005766;28;20041;-83
2023/03/08 10:02:02;;;;;;;75.50;35.67;;;;;;;1.86;100.00;-18077.72;5012264;28;20037;-83
2023/03/08 10:04:39;;;;;;;68.97;34.77;;;;;;;1.89;100.00;-18078.41;5014890;28;20108;-83
2023/03/08 10:07:27;;;;;;;71.65;35.92;;;;;;;1.86;100.00;-18077.56;5024223;28;20045;-83
2023/03/08 10:10:15;;;;;;;63.13;29.88;;;;;;;1.84;100.00;-18077.00;5034106;28;20051;-83
2023/03/08 10:12:59;;;;;;;52.40;27.80;;;;;;;1.80;100.00;-18076.06;5032080;28;20147;-83
2023/03/08 10:15:29;;;;;;;53.50;27.77;;;;;;;1.82;100.00;-18076.59;4979833;28;20054;-83
2023/03/08 10:18:00;;;;;;;51.60;28.48;;;;;;;1.88;100.00;-18078.25;5024494;28;20048;-83
2023/03/08 10:20:28;;;;;;;47.45;24.65;;;;;;;1.91;100.00;-18079.09;5030847;28;20046;-83
2023/03/08 10:23:09;;;;;;;41.17;24.90;;;;;;;1.97;100.00;-18080.63;5021950;28;20045;-83
2023/03/08 10:25:34;;;;;;;42.75;22.52;;;;;;;1.99;100.00;-18081.31;5021430;28;20046;-83
2023/03/08 10:28:07;;;;;;;39.83;24.15;;;;;;;2.05;100.00;-18082.84;5036840;28;20041;-82
2023/03/08 10:30:48;;;;;;;37.03;20.55;;;;;;;2.05;100.00;-18082.69;5027734;28;20041;-83
2023/03/08 10:33:16;;;;;;;29.35;18.08;;;;;;;1.98;100.00;-18081.03;5026648;28;20057;-83
2023/03/08 10:36:08;;;;;;;31.52;16.42;;;;;;;2.00;100.00;-18081.59;5032666;28;20107;-83
2023/03/08 10:38:35;;;;;;;25.73;15.27;;;;;;;1.97;100.00;-18080.75;5030529;28;20056;-83
2023/03/08 10:41:05;;;;;;;26.63;14.82;;;;;;;2.02;100.00;-18082.13;5031150;28;20420;-83
2023/03/08 10:43:35;;;;;;;26.42;15.70;;;;;;;2.12;100.00;-18084.75;5047057;28;20506;-84
2023/03/08 10:46:01;;;;;;;;;;;;;;;2.16;100.00;-18085.75;5047276;28;20041;-83
2023/03/08 10:48:27;;;;;;;23.42;13.60;;;;;;;2.21;100.00;-18087.13;5045859;28;19917;-83
2023/03/08 10:51:01;;;;;;;22.35;12.68;;;;;;;2.19;100.00;-18086.72;5030453;28;20098;-83
2023/03/08 10:53:28;;;;;;;20.38;11.07;;;;;;;2.20;100.00;-18086.84;5042987;28;20101;-83
2023/03/08 10:55:55;;;;;;;19.42;10.80;;;;;;;2.32;100.00;-18090.03;5040728;28;21726;-83
2023/03/08 10:58:33;;;;;;;20.85;12.13;;;;;;;2.37;100.00;-18091.53;5029677;28;20753;-84
2023/03/08 11:01:05;;;;;;;17.45;11.00;;;;;;;2.37;100.00;-18091.41;5043143;28;20060;-84
2023/03/08 11:03:31;;;;;;;16.83;10.70;;;;;;;2.43;100.00;-18093.06;5028385;28;20042;-84
2023/03/08 11:05:59;;;;;;;17.88;10.82;;;;;;;2.54;100.00;-18095.97;5024960;28;20095;-84